createdAt,value
2019-05-28T00:00:01.154Z,99.90
2019-05-28T00:02:16.260Z,99.90
2019-05-28T00:04:42.915Z,99.90
2019-05-28T00:07:09.548Z,99.90
2019-05-28T00:09:36.242Z,99.90
2019-05-28T00:12:03.086Z,99.90
2019-05-28T00:14:29.775Z,99.90
2019-05-28T00:16:56.411Z,99.90
2019-05-28T00:19:23.083Z,99.90
2019-05-28T00:21:49.815Z,99.90
2019-05-28T00:24:16.717Z,99.90
2019-05-28T00:26:43.371Z,99.90
2019-05-28T00:29:10.005Z,99.90
2019-05-28T00:31:36.657Z,99.90
2019-05-28T00:34:03.503Z,99.90
2019-05-28T00:36:30.136Z,99.90
2019-05-28T00:38:56.942Z,99.90
2019-05-28T00:41:23.681Z,99.90
2019-05-28T00:43:50.421Z,99.90
2019-05-28T00:46:17.322Z,99.90
2019-05-28T00:48:44.199Z,99.90
2019-05-28T00:51:11.139Z,99.90
2019-05-28T00:53:37.905Z,99.90
2019-05-28T00:56:22.710Z,99.90
2019-05-28T00:58:49.823Z,99.90
2019-05-28T01:01:16.566Z,99.90
2019-05-28T01:03:43.618Z,99.90
2019-05-28T01:06:10.252Z,99.90
2019-05-28T01:08:36.903Z,99.90
2019-05-28T01:11:10.380Z,99.90
2019-05-28T01:13:37.124Z,99.90
2019-05-28T01:16:03.740Z,99.90
2019-05-28T01:18:30.410Z,99.90
2019-05-28T01:20:57.342Z,99.90
2019-05-28T01:23:24.085Z,99.90
2019-05-28T01:25:50.734Z,99.90
2019-05-28T01:28:31.922Z,99.90
2019-05-28T01:31:00.916Z,99.90
2019-05-28T01:33:27.107Z,99.90
2019-05-28T01:35:53.809Z,99.90
2019-05-28T01:38:20.504Z,99.90
2019-05-28T01:40:47.185Z,99.90
2019-05-28T01:43:13.786Z,99.90
2019-05-28T01:45:40.535Z,99.90
2019-05-28T01:48:07.436Z,99.90
2019-05-28T01:50:36.114Z,99.90
2019-05-28T01:53:02.937Z,99.90
2019-05-28T01:55:31.458Z,99.90
2019-05-28T01:57:58.222Z,99.90
2019-05-28T02:00:24.960Z,99.90
2019-05-28T02:02:51.632Z,99.90
2019-05-28T02:05:18.707Z,99.90
2019-05-28T02:07:45.570Z,99.90
2019-05-28T02:10:12.911Z,99.90
2019-05-28T02:12:39.637Z,99.90
2019-05-28T02:15:09.057Z,99.90
2019-05-28T02:17:35.893Z,99.90
2019-05-28T02:20:05.413Z,99.90
2019-05-28T02:22:32.115Z,99.90
2019-05-28T02:24:59.149Z,99.90
2019-05-28T02:27:25.791Z,99.90
2019-05-28T02:29:52.410Z,99.90
2019-05-28T02:32:19.526Z,99.90
2019-05-28T02:34:46.254Z,99.90
2019-05-28T02:37:12.981Z,99.90
2019-05-28T02:39:39.616Z,99.90
2019-05-28T02:42:06.458Z,99.90
2019-05-28T02:44:33.830Z,99.90
2019-05-28T02:47:00.545Z,99.90
2019-05-28T02:49:27.260Z,99.90
2019-05-28T02:51:54.219Z,99.90
2019-05-28T02:54:21.146Z,99.90
2019-05-28T02:56:48.197Z,99.90
2019-05-28T02:59:16.240Z,99.90
2019-05-28T03:01:45.102Z,99.90
2019-05-28T03:04:13.654Z,99.90
2019-05-28T03:06:42.488Z,99.90
2019-05-28T03:09:09.490Z,99.90
2019-05-28T03:11:36.118Z,99.90
2019-05-28T03:14:03.055Z,99.90
2019-05-28T03:16:33.086Z,99.90
2019-05-28T03:19:01.481Z,99.90
2019-05-28T03:21:28.804Z,99.90
2019-05-28T03:23:58.170Z,99.90
2019-05-28T03:26:25.154Z,99.90
2019-05-28T03:28:51.759Z,99.90
2019-05-28T03:31:18.699Z,99.90
2019-05-28T03:33:45.673Z,99.90
2019-05-28T03:36:15.500Z,99.90
2019-05-28T03:38:43.717Z,99.90
2019-05-28T03:41:11.642Z,99.90
2019-05-28T03:43:38.536Z,99.90
2019-05-28T03:46:05.271Z,99.90
2019-05-28T03:48:31.930Z,99.90
2019-05-28T03:50:58.569Z,99.90
2019-05-28T03:53:25.171Z,99.90
2019-05-28T03:55:52.013Z,99.90
2019-05-28T03:58:19.865Z,99.90
2019-05-28T04:00:46.559Z,99.90
2019-05-28T04:03:13.327Z,99.90
2019-05-28T04:05:40.177Z,99.90
2019-05-28T04:08:06.962Z,99.90
2019-05-28T04:10:33.766Z,99.90
2019-05-28T04:13:00.664Z,99.90
2019-05-28T04:15:27.290Z,99.90
2019-05-28T04:17:53.897Z,99.90
2019-05-28T04:20:20.769Z,99.90
2019-05-28T04:22:47.717Z,99.90
2019-05-28T04:25:14.527Z,99.90
2019-05-28T04:27:41.274Z,99.90
2019-05-28T04:30:08.283Z,99.90
2019-05-28T04:32:40.738Z,99.90
2019-05-28T04:35:05.410Z,99.90
2019-05-28T04:37:32.024Z,99.90
2019-05-28T04:39:59.115Z,99.90
2019-05-28T04:42:25.818Z,99.90
2019-05-28T04:44:52.576Z,99.90
2019-05-28T04:47:19.672Z,99.90
2019-05-28T04:49:46.276Z,99.90
2019-05-28T04:52:12.964Z,99.90
2019-05-28T04:54:39.762Z,99.90
2019-05-28T04:57:06.395Z,99.90
2019-05-28T04:59:34.375Z,99.90
2019-05-28T05:02:01.103Z,99.90
2019-05-28T05:04:28.970Z,99.90
2019-05-28T05:06:55.743Z,99.90
2019-05-28T05:09:22.317Z,99.90
2019-05-28T05:11:49.076Z,99.90
2019-05-28T05:14:15.978Z,99.90
2019-05-28T05:16:42.731Z,99.90
2019-05-28T05:19:09.594Z,99.90
2019-05-28T05:21:36.467Z,99.90
2019-05-28T05:24:03.286Z,99.90
2019-05-28T05:26:29.964Z,99.90
2019-05-28T05:28:56.684Z,99.90
2019-05-28T05:31:23.459Z,99.90
2019-05-28T05:33:50.335Z,99.90
2019-05-28T05:36:16.998Z,99.90
2019-05-28T05:38:43.608Z,99.90
2019-05-28T05:41:10.238Z,99.90
2019-05-28T05:43:37.266Z,99.90
2019-05-28T05:46:03.973Z,99.90
2019-05-28T05:48:30.614Z,99.90
2019-05-28T05:50:57.242Z,99.90
2019-05-28T05:53:23.883Z,99.90
2019-05-28T05:55:50.686Z,99.90
2019-05-28T05:58:17.416Z,99.90
2019-05-28T06:00:44.021Z,99.90
2019-05-28T06:03:11.793Z,99.90
2019-05-28T06:05:38.641Z,99.90
2019-05-28T06:08:05.440Z,99.90
2019-05-28T06:10:34.205Z,99.90
2019-05-28T06:13:00.951Z,99.90
2019-05-28T06:15:27.672Z,99.90
2019-05-28T06:17:54.279Z,99.90
2019-05-28T06:20:22.224Z,99.90
2019-05-28T06:22:49.128Z,99.90
2019-05-28T06:25:20.386Z,99.90
2019-05-28T06:27:47.018Z,99.90
2019-05-28T06:30:13.628Z,99.90
2019-05-28T06:32:40.442Z,99.90
2019-05-28T06:35:07.756Z,99.90
2019-05-28T06:37:34.967Z,99.90
2019-05-28T06:40:01.890Z,99.90
2019-05-28T06:42:28.497Z,99.90
2019-05-28T06:44:55.279Z,99.90
2019-05-28T06:47:22.125Z,99.90
2019-05-28T06:49:48.757Z,99.90
2019-05-28T06:52:15.404Z,99.90
2019-05-28T06:54:42.126Z,99.90
2019-05-28T06:57:22.216Z,99.90
2019-05-28T06:59:38.086Z,99.90
2019-05-28T07:02:04.718Z,99.90
2019-05-28T07:04:33.013Z,99.90
2019-05-28T07:06:59.867Z,99.90
2019-05-28T07:09:26.788Z,99.90
2019-05-28T07:11:53.697Z,99.90
2019-05-28T07:14:20.382Z,99.90
2019-05-28T07:16:53.146Z,99.90
2019-05-28T07:19:24.532Z,99.90
2019-05-28T07:21:43.993Z,99.90
2019-05-28T07:24:10.623Z,99.90
2019-05-28T07:26:37.248Z,99.90
2019-05-28T07:29:04.137Z,99.90
2019-05-28T07:31:30.861Z,99.90
2019-05-28T07:33:57.574Z,99.90
2019-05-28T07:36:24.214Z,99.90
2019-05-28T07:38:50.952Z,99.90
2019-05-28T07:41:17.760Z,99.90
2019-05-28T07:43:44.502Z,99.90
2019-05-28T07:46:11.256Z,99.90
2019-05-28T07:48:38.032Z,99.90
2019-05-28T07:51:04.711Z,99.90
2019-05-28T07:53:39.837Z,99.90
2019-05-28T07:56:00.022Z,99.90
2019-05-28T07:58:26.642Z,99.90
2019-05-28T08:00:55.176Z,99.90
2019-05-28T08:03:22.332Z,99.90
2019-05-28T08:05:49.087Z,99.90
2019-05-28T08:08:16.705Z,99.90
2019-05-28T08:10:43.344Z,99.90
2019-05-28T08:13:10.769Z,99.90
2019-05-28T08:15:38.160Z,99.90
2019-05-28T08:18:04.914Z,99.90
2019-05-28T08:20:32.814Z,99.90
2019-05-28T08:22:59.970Z,99.90
2019-05-28T08:25:45.489Z,99.90
2019-05-28T08:27:55.291Z,99.90
2019-05-28T08:30:23.242Z,99.90
2019-05-28T08:32:49.880Z,99.90
2019-05-28T08:35:16.650Z,99.90
2019-05-28T08:37:43.247Z,99.90
2019-05-28T08:40:10.265Z,99.90
2019-05-28T08:42:36.964Z,99.90
2019-05-28T08:45:05.120Z,99.90
2019-05-28T08:47:31.836Z,99.90
2019-05-28T08:49:58.473Z,99.90
2019-05-28T08:52:25.396Z,99.90
2019-05-28T08:54:52.122Z,99.90
2019-05-28T08:57:19.018Z,99.90
2019-05-28T08:59:46.127Z,99.90
2019-05-28T09:02:27.174Z,99.90
2019-05-28T09:04:41.620Z,99.90
2019-05-28T09:07:21.610Z,99.90
2019-05-28T09:09:48.366Z,99.90
2019-05-28T09:12:14.986Z,99.90
2019-05-28T09:14:55.902Z,99.90
2019-05-28T09:17:10.191Z,99.90
2019-05-28T09:19:36.898Z,99.90
2019-05-28T09:22:03.665Z,99.90
2019-05-28T09:24:30.339Z,99.90
2019-05-28T09:26:58.072Z,99.90
2019-05-28T09:29:24.804Z,99.90
2019-05-28T09:31:51.680Z,99.90
2019-05-28T09:34:18.432Z,99.90
2019-05-28T09:36:45.217Z,99.90
2019-05-28T09:39:12.105Z,99.90
2019-05-28T09:41:38.958Z,99.90
2019-05-28T09:44:05.788Z,99.90
2019-05-28T09:46:32.516Z,99.90
2019-05-28T09:48:59.415Z,99.90
2019-05-28T09:51:26.165Z,99.90
2019-05-28T09:53:52.904Z,99.90
2019-05-28T09:56:19.564Z,99.90
2019-05-28T09:58:46.280Z,99.90
2019-05-28T10:01:17.216Z,99.90
2019-05-28T10:03:44.204Z,99.90
2019-05-28T10:06:16.826Z,99.90
2019-05-28T10:08:39.553Z,99.90
2019-05-28T10:11:06.257Z,99.90
2019-05-28T10:13:41.816Z,99.90
2019-05-28T10:16:08.627Z,99.90
2019-05-28T10:18:35.239Z,99.90
2019-05-28T10:21:17.079Z,99.90
2019-05-28T10:23:31.665Z,99.90
2019-05-28T10:25:58.353Z,99.90
2019-05-28T10:28:25.263Z,99.90
2019-05-28T10:30:53.022Z,99.90
2019-05-28T10:33:20.036Z,99.90
2019-05-28T10:35:46.775Z,99.90
2019-05-28T10:38:16.693Z,99.90
2019-05-28T10:40:42.087Z,99.90
2019-05-28T10:43:08.890Z,99.90
2019-05-28T10:45:35.823Z,99.90
2019-05-28T10:48:03.159Z,99.90
2019-05-28T10:50:30.151Z,99.90
2019-05-28T10:52:56.983Z,99.90
2019-05-28T10:55:23.702Z,99.90
2019-05-28T10:57:50.350Z,99.90
2019-05-28T11:00:18.087Z,99.90
2019-05-28T11:02:44.696Z,99.90
2019-05-28T11:05:13.080Z,99.90
2019-05-28T11:07:39.753Z,99.90
2019-05-28T11:10:23.330Z,99.90
2019-05-28T11:12:36.769Z,99.90
2019-05-28T11:15:09.683Z,99.90
2019-05-28T11:17:36.420Z,99.90
2019-05-28T11:20:11.288Z,99.90
2019-05-28T11:22:37.998Z,99.90
2019-05-28T11:25:06.203Z,99.90
2019-05-28T11:27:33.193Z,99.90
2019-05-28T11:30:00.264Z,99.90
2019-05-28T11:32:26.928Z,99.90
2019-05-28T11:34:53.565Z,99.60
2019-05-28T11:37:20.179Z,99.90
2019-05-28T11:39:46.950Z,99.80
2019-05-28T11:42:13.688Z,99.90
2019-05-28T11:44:40.381Z,99.90
2019-05-28T11:47:07.526Z,99.20
2019-05-28T11:49:41.869Z,99.60
2019-05-28T11:52:08.681Z,98.90
2019-05-28T11:54:42.741Z,98.00
2019-05-28T11:57:09.586Z,97.40
2019-05-28T11:59:36.323Z,97.60
2019-05-28T12:02:05.558Z,98.30
2019-05-28T12:04:32.629Z,98.10
2019-05-28T12:07:01.293Z,97.00
2019-05-28T12:09:28.741Z,96.50
2019-05-28T12:11:57.383Z,97.00
2019-05-28T12:14:24.193Z,96.40
2019-05-28T12:16:50.959Z,97.70
2019-05-28T12:19:17.609Z,99.90
2019-05-28T12:21:44.381Z,99.90
2019-05-28T12:24:11.300Z,99.90
2019-05-28T12:26:37.934Z,99.90
2019-05-28T12:29:04.560Z,99.90
2019-05-28T12:31:31.415Z,99.90
2019-05-28T12:33:58.166Z,99.90
2019-05-28T12:36:25.013Z,99.90
2019-05-28T12:38:51.669Z,99.90
2019-05-28T12:41:18.423Z,99.90
2019-05-28T12:43:45.087Z,99.90
2019-05-28T12:46:11.844Z,99.90
2019-05-28T12:48:38.469Z,99.90
2019-05-28T12:51:05.193Z,99.90
2019-05-28T12:53:48.263Z,99.90
2019-05-28T12:56:00.508Z,99.90
2019-05-28T12:58:41.669Z,99.90
2019-05-28T13:00:57.697Z,99.90
2019-05-28T13:03:24.328Z,99.90
2019-05-28T13:05:51.146Z,99.90
2019-05-28T13:08:17.807Z,99.90
2019-05-28T13:10:44.452Z,99.90
2019-05-28T13:13:11.448Z,99.90
2019-05-28T13:15:42.185Z,99.90
2019-05-28T13:18:06.808Z,99.90
2019-05-28T13:20:33.572Z,99.90
2019-05-28T13:23:01.438Z,99.90
2019-05-28T13:25:28.049Z,99.90
2019-05-28T13:27:54.820Z,99.90
2019-05-28T13:30:21.989Z,99.90
2019-05-28T13:32:48.689Z,99.90
2019-05-28T13:35:16.149Z,99.90
2019-05-28T13:37:42.931Z,99.90
2019-05-28T13:40:12.208Z,99.90
2019-05-28T13:42:39.036Z,99.90
2019-05-28T13:45:06.574Z,99.90
2019-05-28T13:47:34.425Z,99.90
2019-05-28T13:50:03.116Z,99.90
2019-05-28T13:52:29.874Z,99.90
2019-05-28T13:54:56.521Z,99.90
2019-05-28T13:57:23.277Z,99.90
2019-05-28T13:59:49.895Z,99.90
2019-05-28T14:02:16.534Z,99.90
2019-05-28T14:04:43.245Z,99.90
2019-05-28T14:07:09.917Z,99.90
2019-05-28T14:09:36.587Z,99.90
2019-05-28T14:12:03.640Z,99.90
2019-05-28T14:14:30.396Z,99.90
2019-05-28T14:16:57.101Z,99.90
2019-05-28T14:19:23.815Z,99.90
2019-05-28T14:21:50.457Z,99.90
2019-05-28T14:24:17.197Z,99.90
2019-05-28T14:26:43.902Z,99.90
2019-05-28T14:29:10.740Z,99.90
2019-05-28T14:31:37.376Z,99.90
2019-05-28T14:34:04.209Z,99.90
2019-05-28T14:36:30.871Z,99.90
2019-05-28T14:39:03.359Z,99.90
2019-05-28T14:41:26.151Z,99.90
2019-05-28T14:43:53.019Z,99.90
2019-05-28T14:46:19.692Z,99.90
2019-05-28T14:48:48.309Z,99.90
2019-05-28T14:51:15.100Z,99.90
2019-05-28T14:53:41.926Z,99.90
2019-05-28T14:56:08.702Z,99.90
2019-05-28T14:58:35.385Z,99.90
2019-05-28T15:01:02.843Z,99.90
2019-05-28T15:03:29.633Z,99.90
2019-05-28T15:05:56.454Z,99.90
2019-05-28T15:08:23.083Z,99.90
2019-05-28T15:10:49.715Z,99.90
2019-05-28T15:13:16.337Z,99.90
2019-05-28T15:15:43.289Z,99.90
2019-05-28T15:18:12.389Z,99.90
2019-05-28T15:20:39.057Z,99.90
2019-05-28T15:23:05.911Z,99.90
2019-05-28T15:25:32.735Z,99.90
2019-05-28T15:27:59.370Z,99.90
2019-05-28T15:30:26.206Z,99.90
2019-05-28T15:32:52.839Z,99.90
2019-05-28T15:35:19.768Z,99.90
2019-05-28T15:37:46.566Z,99.90
2019-05-28T15:40:13.771Z,99.90
2019-05-28T15:42:40.641Z,99.90
2019-05-28T15:45:08.624Z,99.90
2019-05-28T15:47:36.775Z,99.90
2019-05-28T15:50:06.631Z,99.90
2019-05-28T15:52:33.237Z,99.90
2019-05-28T15:55:00.375Z,99.90
2019-05-28T15:57:27.111Z,99.90
2019-05-28T15:59:53.739Z,99.90
2019-05-28T16:02:20.353Z,99.90
2019-05-28T16:04:47.000Z,99.90
2019-05-28T16:07:13.695Z,99.90
2019-05-28T16:09:55.049Z,99.90
2019-05-28T16:12:08.893Z,99.90
2019-05-28T16:14:35.528Z,99.90
2019-05-28T16:17:02.373Z,99.90
2019-05-28T16:19:29.106Z,99.90
2019-05-28T16:21:55.848Z,99.90
2019-05-28T16:24:22.778Z,99.90
2019-05-28T16:26:49.448Z,99.90
2019-05-28T16:29:16.286Z,99.90
2019-05-28T16:31:43.061Z,99.90
2019-05-28T16:34:09.798Z,99.90
2019-05-28T16:36:36.461Z,99.90
2019-05-28T16:39:06.492Z,99.90
2019-05-28T16:41:33.265Z,99.90
2019-05-28T16:44:00.201Z,99.90
2019-05-28T16:46:26.995Z,99.90
2019-05-28T16:48:53.703Z,99.90
2019-05-28T16:51:20.753Z,99.90
2019-05-28T16:53:47.609Z,99.90
2019-05-28T16:56:14.371Z,99.90
2019-05-28T16:58:41.145Z,99.90
2019-05-28T17:01:22.043Z,99.90
2019-05-28T17:03:36.912Z,99.90
2019-05-28T17:06:03.715Z,99.90
2019-05-28T17:08:30.375Z,99.90
2019-05-28T17:10:57.272Z,99.90
2019-05-28T17:13:25.905Z,99.90
2019-05-28T17:15:52.614Z,99.90
2019-05-28T17:18:19.360Z,99.90
2019-05-28T17:20:46.325Z,99.90
2019-05-28T17:23:13.153Z,99.90
2019-05-28T17:25:39.840Z,99.90
2019-05-28T17:28:06.602Z,99.90
2019-05-28T17:30:33.269Z,99.90
2019-05-28T17:33:00.165Z,99.90
2019-05-28T17:35:26.947Z,99.90
2019-05-28T17:37:53.686Z,99.90
2019-05-28T17:40:22.203Z,99.90
2019-05-28T17:42:50.967Z,99.90
2019-05-28T17:45:18.221Z,99.90
2019-05-28T17:47:45.128Z,99.90
2019-05-28T17:50:12.973Z,99.90
2019-05-28T17:52:40.103Z,99.90
2019-05-28T17:55:07.191Z,99.90
2019-05-28T17:57:34.110Z,99.90
2019-05-28T18:00:00.739Z,99.90
2019-05-28T18:02:34.659Z,99.90
2019-05-28T18:05:01.438Z,99.90
2019-05-28T18:07:28.541Z,99.90
2019-05-28T18:09:55.224Z,99.90
2019-05-28T18:12:21.875Z,99.90
2019-05-28T18:14:48.509Z,99.90
2019-05-28T18:17:15.257Z,99.90
2019-05-28T18:19:41.980Z,99.90
2019-05-28T18:22:08.617Z,99.90
2019-05-28T18:24:35.257Z,99.90
2019-05-28T18:27:02.035Z,99.90
2019-05-28T18:29:36.834Z,99.90
2019-05-28T18:32:04.156Z,99.90
2019-05-28T18:34:31.191Z,99.90
2019-05-28T18:36:57.952Z,99.90
2019-05-28T18:39:25.580Z,99.90
2019-05-28T18:41:52.463Z,99.90
2019-05-28T18:44:19.154Z,99.90
2019-05-28T18:46:45.910Z,99.90
2019-05-28T18:49:12.645Z,99.90
2019-05-28T18:51:39.521Z,99.90
2019-05-28T18:54:06.346Z,99.90
2019-05-28T18:56:32.996Z,99.90
2019-05-28T18:58:59.747Z,99.90
2019-05-28T19:01:27.476Z,99.90
2019-05-28T19:03:54.253Z,99.90
2019-05-28T19:06:21.433Z,99.90
2019-05-28T19:08:48.165Z,99.90
2019-05-28T19:11:16.091Z,99.90
2019-05-28T19:13:44.554Z,99.90
2019-05-28T19:16:11.387Z,99.90
2019-05-28T19:18:38.482Z,99.90
2019-05-28T19:21:05.481Z,99.90
2019-05-28T19:23:32.600Z,99.90
2019-05-28T19:25:59.487Z,99.90
2019-05-28T19:28:26.325Z,99.90
2019-05-28T19:30:53.174Z,99.90
2019-05-28T19:33:19.988Z,99.90
2019-05-28T19:35:47.524Z,99.90
2019-05-28T19:38:15.857Z,99.90
2019-05-28T19:40:42.680Z,99.90
2019-05-28T19:43:09.412Z,99.90
2019-05-28T19:45:37.061Z,99.90
2019-05-28T19:48:28.479Z,99.90
2019-05-28T19:50:58.054Z,99.90
2019-05-28T19:53:26.841Z,99.90
2019-05-28T19:55:53.698Z,99.90
2019-05-28T19:58:20.359Z,99.90
2019-05-28T20:00:47.185Z,99.90
2019-05-28T20:03:19.218Z,99.90
2019-05-28T20:05:47.029Z,99.90
2019-05-28T20:08:15.781Z,99.90
2019-05-28T20:10:42.601Z,99.90
2019-05-28T20:13:09.734Z,99.90
2019-05-28T20:15:36.421Z,99.90
2019-05-28T20:18:03.288Z,99.90
2019-05-28T20:20:30.028Z,99.90
2019-05-28T20:22:56.675Z,99.90
2019-05-28T20:25:24.575Z,99.90
2019-05-28T20:27:51.863Z,99.90
2019-05-28T20:30:19.420Z,99.90
2019-05-28T20:32:46.350Z,99.90
2019-05-28T20:35:13.595Z,99.90
2019-05-28T20:37:40.789Z,99.90
2019-05-28T20:40:10.249Z,99.90
2019-05-28T20:42:37.657Z,99.90
2019-05-28T20:45:06.619Z,99.90
2019-05-28T20:47:33.617Z,99.90
2019-05-28T20:50:00.747Z,99.90
2019-05-28T20:52:27.428Z,99.90
2019-05-28T20:54:55.133Z,99.90
2019-05-28T20:57:22.493Z,99.90
2019-05-28T20:59:49.562Z,99.90
2019-05-28T21:02:19.223Z,99.90
2019-05-28T21:04:46.262Z,99.90
2019-05-28T21:07:13.042Z,99.90
2019-05-28T21:09:40.023Z,99.90
2019-05-28T21:12:06.687Z,99.90
2019-05-28T21:14:33.472Z,99.90
2019-05-28T21:17:00.516Z,99.90
2019-05-28T21:19:27.409Z,99.90
2019-05-28T21:21:54.038Z,99.90
2019-05-28T21:24:20.676Z,99.90
2019-05-28T21:26:47.381Z,99.90
2019-05-28T21:29:14.425Z,99.90
2019-05-28T21:31:41.235Z,99.90
2019-05-28T21:34:08.024Z,99.90
2019-05-28T21:36:34.665Z,99.90
2019-05-28T21:39:01.503Z,99.90
2019-05-28T21:41:29.916Z,99.90
2019-05-28T21:43:57.892Z,99.90
2019-05-28T21:46:24.873Z,99.90
2019-05-28T21:48:52.352Z,99.90
2019-05-28T21:51:21.765Z,99.90
2019-05-28T21:53:48.447Z,99.90
2019-05-28T21:56:19.184Z,99.90
2019-05-28T21:58:46.311Z,99.90
2019-05-28T22:01:16.920Z,99.90
2019-05-28T22:03:43.710Z,99.90
2019-05-28T22:06:10.445Z,99.90
2019-05-28T22:08:37.325Z,99.90
2019-05-28T22:11:04.284Z,99.90
2019-05-28T22:13:30.900Z,99.90
2019-05-28T22:15:58.098Z,99.90
2019-05-28T22:18:25.744Z,99.90
2019-05-28T22:20:52.745Z,99.90
2019-05-28T22:23:19.476Z,99.90
2019-05-28T22:25:46.214Z,99.90
2019-05-28T22:28:12.975Z,99.90
2019-05-28T22:30:39.770Z,99.90
2019-05-28T22:33:06.629Z,99.90
2019-05-28T22:35:34.581Z,99.90
2019-05-28T22:38:01.437Z,99.90
2019-05-28T22:40:28.667Z,99.90
2019-05-28T22:42:58.500Z,99.90
2019-05-28T22:45:25.546Z,99.90
2019-05-28T22:47:52.419Z,99.90
2019-05-28T22:50:23.107Z,99.90
2019-05-28T22:52:47.921Z,99.90
2019-05-28T22:55:14.858Z,99.90
2019-05-28T22:57:41.484Z,99.90
2019-05-28T23:00:08.963Z,99.90
2019-05-28T23:02:35.835Z,99.90
2019-05-28T23:05:05.148Z,99.90
2019-05-28T23:07:32.115Z,99.90
2019-05-28T23:09:59.503Z,99.90
2019-05-28T23:12:28.001Z,99.90
2019-05-28T23:14:54.626Z,99.90
2019-05-28T23:17:22.525Z,99.90
2019-05-28T23:19:49.290Z,99.90
2019-05-28T23:22:16.154Z,99.90
2019-05-28T23:24:42.858Z,99.90
2019-05-28T23:27:09.652Z,99.90
2019-05-28T23:29:36.658Z,99.90
2019-05-28T23:32:03.984Z,99.90
2019-05-28T23:34:30.746Z,99.90
2019-05-28T23:36:57.836Z,99.90
2019-05-28T23:39:24.791Z,99.90
2019-05-28T23:41:51.387Z,99.90
2019-05-28T23:44:18.010Z,99.90
2019-05-28T23:46:44.794Z,99.90
2019-05-28T23:49:12.268Z,99.90
2019-05-28T23:51:39.738Z,99.90
2019-05-28T23:54:07.605Z,99.90
2019-05-28T23:56:34.387Z,99.90
2019-05-28T23:59:01.060Z,99.90
